Time;durP1;ratioP1;P1;durP2;ratioP2;P2;SDS_P1;SDS_P2;PMS_P1;PMS_P2;Temp;Humidity;BMP_temperature;BMP_pressure;BME280_temperature;BME280_humidity;BME280_pressure;Samples;Min_cycle;Max_cycle;Signal;HPM_P1;HPM_P2
2023/01/03 00:01:47;;;;;;;25.47;16.40;;;;;;;-143.84;71.94;45123.34;5093741;28;20500;-76
2023/01/03 00:04:14;;;;;;;32.33;19.80;;;;;;;-143.84;71.21;45132.84;5093658;28;20441;-76
2023/01/03 00:06:45;;;;;;;34.30;22.50;;;;;;;-143.84;70.71;45130.94;5093645;28;20437;-76
2023/01/03 00:09:14;;;;;;;28.83;19.67;;;;;;;-143.84;70.18;45125.22;5093707;28;20491;-76
2023/01/03 00:14:29;;;;;;;32.27;18.53;;;;;;;-143.84;70.99;45132.84;5093499;28;20897;-76
2023/01/03 00:16:59;;;;;;;30.77;19.80;;;;;;;-143.84;70.55;45132.84;5093863;28;20792;-76
2023/01/03 00:19:34;;;;;;;26.77;19.00;;;;;;;-143.84;70.34;45148.09;5093245;28;20512;-76
2023/01/03 00:22:01;;;;;;;25.33;19.53;;;;;;;-143.84;69.86;45119.53;5093242;28;20434;-76
2023/01/03 00:24:28;;;;;;;26.33;19.03;;;;;;;-143.84;69.82;45125.22;5092000;28;20563;-76
2023/01/03 00:26:57;;;;;;;22.23;18.67;;;;;;;-143.84;69.68;45130.94;5093180;28;20441;-76
2023/01/03 00:29:25;;;;;;;22.27;16.77;;;;;;;-143.84;69.86;45106.19;5093273;28;21015;-76
2023/01/03 00:31:52;;;;;;;24.37;17.90;;;;;;;-143.84;69.65;45155.69;5093628;28;20447;-76
2023/01/03 00:34:19;;;;;;;21.47;15.87;;;;;;;-143.84;69.38;45144.28;5093511;28;20450;-76
2023/01/03 00:36:47;;;;;;;21.70;15.57;;;;;;;-143.84;69.18;45102.38;5093446;28;20443;-76
2023/01/03 00:39:14;;;;;;;20.43;14.67;;;;;;;-143.84;68.83;45132.84;5093283;28;20438;-76
2023/01/03 00:41:41;;;;;;;22.53;14.90;;;;;;;-143.84;68.20;45123.34;5093192;28;20442;-76
2023/01/03 00:44:10;;;;;;;17.10;14.17;;;;;;;-143.84;67.78;45100.47;5093328;28;20564;-76
2023/01/03 00:46:37;;;;;;;19.00;12.33;;;;;;;-143.84;67.40;45172.84;5093133;28;20933;-76
2023/01/03 00:49:05;;;;;;;17.73;14.07;;;;;;;-143.84;67.38;45136.66;5093325;28;20470;-76
2023/01/03 00:51:34;;;;;;;24.97;13.73;;;;;;;-143.84;67.30;45144.28;5092784;28;20480;-76
2023/01/03 00:54:02;;;;;;;17.37;11.83;;;;;;;-143.84;67.07;45134.75;5093300;28;20504;-76
2023/01/03 00:56:31;;;;;;;21.93;12.27;;;;;;;-143.84;66.61;45140.47;5093420;28;20504;-76
2023/01/03 00:58:58;;;;;;;18.07;12.47;;;;;;;-143.84;66.97;45110.00;5092951;28;20443;-75
2023/01/03 01:01:28;;;;;;;16.83;12.00;;;;;;;-143.84;66.53;45144.28;5093050;28;20909;-75
2023/01/03 01:04:00;;;;;;;16.47;12.40;;;;;;;-143.84;66.74;45132.84;5092746;28;20447;-75
2023/01/03 01:06:29;;;;;;;15.33;12.27;;;;;;;-143.84;66.27;45144.28;5092781;28;20445;-75
2023/01/03 01:08:59;;;;;;;16.20;12.50;;;;;;;-143.84;66.05;45146.19;5092990;28;20435;-75
2023/01/03 01:11:28;;;;;;;15.63;12.27;;;;;;;-143.84;66.18;45129.03;5092161;28;20490;-75
2023/01/03 01:13:55;;;;;;;17.53;12.87;;;;;;;-143.84;66.56;45146.19;5092595;28;20439;-74
2023/01/03 01:16:25;;;;;;;13.23;11.70;;;;;;;-143.84;66.23;45136.66;5092477;28;20435;-74
2023/01/03 01:18:54;;;;;;;19.37;12.60;;;;;;;-143.84;65.83;45121.44;5092582;28;20564;-75
2023/01/03 01:21:24;;;;;;;17.30;13.13;;;;;;;-143.84;65.50;45140.47;5092470;28;20439;-75
2023/01/03 01:23:52;;;;;;;18.87;14.10;;;;;;;-143.84;65.50;45134.75;5092566;28;20447;-74
2023/01/03 01:26:21;;;;;;;15.33;12.57;;;;;;;-143.84;65.36;45113.81;5092322;28;20536;-74
2023/01/03 01:28:49;;;;;;;16.80;12.70;;;;;;;-143.84;64.93;45140.47;5092163;28;20517;-75
2023/01/03 01:31:18;;;;;;;19.20;12.40;;;;;;;-143.84;64.81;45153.81;5092085;28;20552;-75
2023/01/03 01:33:45;;;;;;;16.30;12.43;;;;;;;-143.84;64.86;45144.28;5092202;28;20862;-75
2023/01/03 01:36:17;;;;;;;14.60;11.07;;;;;;;-143.84;64.54;45132.84;5092049;28;20495;-75
2023/01/03 01:38:45;;;;;;;13.80;10.83;;;;;;;-143.84;64.40;45123.34;5092268;28;20500;-74
2023/01/03 01:41:14;;;;;;;16.57;12.93;;;;;;;-143.84;64.26;45155.69;5092034;28;20446;-75
2023/01/03 01:46:51;;;;;;;14.50;11.13;;;;;;;-143.84;63.83;45138.56;5084469;28;21003;-75
2023/01/03 01:49:26;;;;;;;16.83;11.27;;;;;;;-143.84;63.97;45129.03;5091918;28;20491;-75
2023/01/03 01:51:55;;;;;;;16.57;11.57;;;;;;;-143.84;63.73;45146.19;5091717;28;20441;-75
2023/01/03 01:54:22;;;;;;;12.20;10.67;;;;;;;-143.84;63.21;45151.91;5091820;28;20439;-75
2023/01/03 01:56:51;;;;;;;16.40;11.27;;;;;;;-143.84;62.86;45121.44;5091827;28;20441;-74
2023/01/03 01:59:19;;;;;;;17.00;12.57;;;;;;;-143.84;62.92;45140.47;5091431;28;20957;-74
2023/01/03 02:01:48;;;;;;;18.10;10.30;;;;;;;-143.84;62.85;45127.13;5091738;28;20447;-74
2023/01/03 02:04:18;;;;;;;15.27;11.17;;;;;;;-143.84;62.69;45159.50;5091645;28;20439;-75
2023/01/03 02:06:46;;;;;;;12.23;10.33;;;;;;;-143.84;62.15;45148.09;5074576;28;20498;-75
2023/01/03 02:09:14;;;;;;;16.33;11.87;;;;;;;-143.84;62.27;45163.31;5091511;28;20520;-75
2023/01/03 02:13:04;;;;;;;12.60;10.23;;;;;;;-143.84;62.30;45146.19;5090966;28;20476;-74
2023/01/03 02:14:52;;;;;;;19.17;11.83;;;;;;;-143.84;62.27;45146.19;5091225;28;20412;-74
2023/01/03 02:17:29;;;;;;;18.90;11.87;;;;;;;-143.84;62.18;45129.03;5090912;28;20500;-75
2023/01/03 02:20:19;;;;;;;12.90;11.17;;;;;;;-143.84;62.06;45151.91;5091242;28;20454;-75
2023/01/03 02:23:35;;;;;;;14.23;11.03;;;;;;;-143.84;62.43;45121.44;5082460;28;21017;-75
2023/01/03 02:26:33;;;;;;;15.50;10.20;;;;;;;-143.84;62.20;45159.50;5028626;28;20511;-75
2023/01/03 02:29:39;;;;;;;15.00;10.33;;;;;;;-143.84;62.44;45129.03;5029056;28;20484;-75
2023/01/03 02:32:14;;;;;;;12.47;10.20;;;;;;;-143.84;62.94;45146.19;5058058;28;21021;-75
2023/01/03 02:34:47;;;;;;;15.40;10.37;;;;;;;-143.84;62.85;45144.28;5091247;28;20595;-75
2023/01/03 02:37:25;;;;;;;17.93;11.70;;;;;;;-143.84;62.86;45106.19;5090452;28;20811;-74
2023/01/03 02:40:00;;;;;;;16.23;11.90;;;;;;;-143.84;63.27;45117.63;5091112;28;20824;-75
2023/01/03 02:45:24;;;;;;;23.60;12.50;;;;;;;-143.84;63.40;45151.91;5091229;28;20517;-74
2023/01/03 02:47:58;;;;;;;14.80;11.60;;;;;;;-143.84;62.83;45130.94;5091075;28;20458;-74
2023/01/03 02:50:29;;;;;;;16.00;11.97;;;;;;;-143.84;62.97;45161.41;5091010;28;20486;-75
2023/01/03 02:53:02;;;;;;;22.10;13.97;;;;;;;-143.84;63.35;45159.50;5091088;28;20446;-74
2023/01/03 02:55:33;;;;;;;20.17;13.17;;;;;;;-143.84;63.57;45150.00;5092008;28;20842;-75
2023/01/03 02:58:04;;;;;;;20.23;13.73;;;;;;;-143.84;63.57;45138.56;5092345;28;20842;-75
2023/01/03 03:00:34;;;;;;;25.73;14.97;;;;;;;-143.84;63.20;45125.22;5092457;28;20826;-75
2023/01/03 03:03:08;;;;;;;14.97;12.30;;;;;;;-143.84;63.17;45130.94;5091108;28;20435;-75
2023/01/03 03:05:42;;;;;;;14.57;11.70;;;;;;;-143.84;62.57;45155.69;5092011;28;20985;-75
2023/01/03 03:08:09;;;;;;;12.20;10.57;;;;;;;-143.84;62.08;45129.03;5092204;28;20456;-75
2023/01/03 03:13:30;;;;;;;21.20;12.27;;;;;;;-143.84;62.12;45142.38;5092296;28;20993;-75
2023/01/03 03:16:04;;;;;;;41.67;13.00;;;;;;;-143.84;61.94;45144.28;5092461;28;20490;-75
2023/01/03 03:18:42;;;;;;;18.73;12.40;;;;;;;-143.84;62.37;45136.66;5092154;28;20847;-75
2023/01/03 03:26:58;;;;;;;17.90;12.67;;;;;;;-143.84;63.03;45127.13;5090575;28;20440;-76
2023/01/03 03:29:27;;;;;;;14.60;12.23;;;;;;;-143.84;62.97;45102.38;5090768;28;21003;-76
2023/01/03 03:31:55;;;;;;;15.90;13.17;;;;;;;-143.84;62.86;45151.91;5090453;28;20451;-76
2023/01/03 03:34:27;;;;;;;17.77;13.00;;;;;;;-143.84;62.82;45142.38;5091052;28;20446;-76
2023/01/03 03:37:00;;;;;;;15.37;12.07;;;;;;;-143.84;63.00;45142.38;5090814;28;20451;-76
2023/01/03 03:45:19;;;;;;;17.53;12.57;;;;;;;-143.84;64.20;45125.22;5090434;28;20414;-76
2023/01/03 03:47:52;;;;;;;16.87;12.20;;;;;;;-143.84;64.66;45165.22;5091356;28;20437;-76
2023/01/03 03:50:28;;;;;;;15.40;11.33;;;;;;;-143.84;64.73;45136.66;5092630;28;20517;-76
2023/01/03 03:52:58;;;;;;;11.97;10.30;;;;;;;-143.84;65.19;45136.66;5093053;28;20449;-76
2023/01/03 03:55:29;;;;;;;15.17;10.43;;;;;;;-143.84;65.59;45127.13;5094216;28;20433;-76
2023/01/03 03:58:01;;;;;;;13.50;10.30;;;;;;;-143.84;65.93;45134.75;5094150;28;20858;-76
2023/01/03 04:00:32;;;;;;;13.17;10.50;;;;;;;-143.84;65.77;45130.94;5094084;28;20434;-76
2023/01/03 04:03:02;;;;;;;16.77;11.27;;;;;;;-143.84;65.69;45138.56;5093960;28;20533;-76
2023/01/03 04:05:35;;;;;;;15.43;10.80;;;;;;;-143.84;65.79;45138.56;5094414;28;20430;-76
2023/01/03 04:08:02;;;;;;;17.40;11.37;;;;;;;-143.84;65.64;45117.63;5094035;28;20447;-76
2023/01/03 04:10:29;;;;;;;11.10;9.70;;;;;;;-143.84;65.24;45150.00;5093445;28;20498;-76
2023/01/03 04:12:57;;;;;;;14.23;10.33;;;;;;;-143.84;65.40;45119.53;5093737;28;20439;-76
2023/01/03 04:15:24;;;;;;;11.43;9.27;;;;;;;-143.84;65.22;45146.19;5094000;28;20530;-76
2023/01/03 04:17:51;;;;;;;13.50;10.10;;;;;;;-143.84;65.13;45125.22;5093681;28;20496;-76
2023/01/03 04:20:18;;;;;;;20.27;12.27;;;;;;;-143.84;64.91;45142.38;5093949;28;20911;-76
2023/01/03 04:22:47;;;;;;;14.77;11.77;;;;;;;-143.84;64.54;45121.44;5093738;28;20462;-76
2023/01/03 04:25:14;;;;;;;18.33;10.90;;;;;;;-143.84;64.45;45150.00;5093607;28;20496;-77
2023/01/03 04:27:41;;;;;;;17.47;11.70;;;;;;;-143.84;64.72;45117.63;5093598;28;20438;-76
2023/01/03 04:30:10;;;;;;;12.60;10.33;;;;;;;-143.84;64.80;45151.91;5093480;28;20570;-76
2023/01/03 04:32:37;;;;;;;20.50;11.53;;;;;;;-143.84;64.93;45174.75;5093232;28;20445;-76
2023/01/03 04:35:05;;;;;;;9.07;7.73;;;;;;;-143.84;65.91;45142.38;5093550;28;20828;-76
2023/01/03 04:37:32;;;;;;;8.63;7.73;;;;;;;-143.84;67.23;45115.72;5093720;28;20462;-76
2023/01/03 04:40:01;;;;;;;11.37;8.73;;;;;;;-143.84;67.61;45129.03;5093542;28;20447;-76
2023/01/03 04:45:12;;;;;;;17.53;9.60;;;;;;;-143.84;67.31;45134.75;5093255;28;20799;-76
2023/01/03 04:47:40;;;;;;;11.67;8.47;;;;;;;-143.84;67.15;45151.91;5093129;28;20439;-76
2023/01/03 04:50:08;;;;;;;12.07;8.80;;;;;;;-143.84;66.50;45115.72;5093713;28;20504;-76
2023/01/03 04:52:35;;;;;;;10.63;8.47;;;;;;;-143.84;66.22;45115.72;5092951;28;20447;-73
2023/01/03 04:55:04;;;;;;;8.57;7.60;;;;;;;-143.84;66.60;45138.56;5093406;28;20446;-76
2023/01/03 04:57:31;;;;;;;8.37;7.27;;;;;;;-143.84;66.73;45129.03;5092996;28;20966;-75
2023/01/03 04:59:58;;;;;;;9.33;7.23;;;;;;;-143.84;66.94;45140.47;5092351;28;21013;-75
2023/01/03 05:02:25;;;;;;;8.70;7.80;;;;;;;-143.84;66.89;45108.09;5093233;28;20434;-77
2023/01/03 05:04:52;;;;;;;7.07;6.37;;;;;;;-143.84;66.70;45155.69;5092666;28;20439;-76
2023/01/03 05:07:19;;;;;;;12.13;10.13;;;;;;;-143.84;66.90;45140.47;5091355;28;20428;-75
2023/01/03 05:09:46;;;;;;;17.40;12.50;;;;;;;-143.84;66.64;45136.66;5092527;28;20447;-77
2023/01/03 05:12:15;;;;;;;17.37;14.47;;;;;;;-143.84;66.64;45155.69;5092822;28;20483;-77
2023/01/03 05:14:42;;;;;;;21.80;14.07;;;;;;;-143.84;66.90;45140.47;5092698;28;20447;-77
2023/01/03 05:17:09;;;;;;;15.47;12.10;;;;;;;-143.84;66.84;45129.03;5092545;28;20538;-76
2023/01/03 05:25:48;;;;;;;11.60;8.20;;;;;;;-143.84;66.72;45151.91;5091934;28;20938;-74
2023/01/03 05:27:57;;;;;;;7.20;6.50;;;;;;;-143.84;67.58;45142.38;5092310;28;20923;-75
2023/01/03 05:30:24;;;;;;;13.23;7.40;;;;;;;-143.84;67.65;45125.22;5091702;28;21034;-75
2023/01/03 05:32:51;;;;;;;8.87;7.20;;;;;;;-143.84;67.62;45129.03;5091975;28;20439;-75
2023/01/03 05:35:18;;;;;;;8.17;7.00;;;;;;;-143.84;67.86;45092.88;5091764;28;20504;-75
2023/01/03 05:37:45;;;;;;;10.63;7.87;;;;;;;-143.84;67.80;45110.00;5091899;28;20567;-75
2023/01/03 05:40:13;;;;;;;7.17;6.43;;;;;;;-143.84;67.84;45138.56;5091742;28;20442;-75
2023/01/03 05:42:40;;;;;;;10.33;6.97;;;;;;;-143.84;67.72;45127.13;5091741;28;20477;-76
2023/01/03 05:45:10;;;;;;;7.87;7.10;;;;;;;-143.84;67.75;45132.84;5091659;28;20438;-75
2023/01/03 05:47:37;;;;;;;7.37;6.20;;;;;;;-143.84;67.53;45136.66;5091527;28;20447;-76
2023/01/03 05:50:05;;;;;;;11.40;6.60;;;;;;;-143.84;67.40;45129.03;5091627;28;20489;-75
2023/01/03 05:52:32;;;;;;;7.10;6.20;;;;;;;-143.84;67.50;45129.03;5091748;28;20483;-75
2023/01/03 05:55:00;;;;;;;6.70;6.00;;;;;;;-143.84;67.46;45144.28;5091413;28;20440;-76
2023/01/03 05:57:27;;;;;;;9.33;6.60;;;;;;;-143.84;67.16;45123.34;5091571;28;20458;-76
2023/01/03 05:59:54;;;;;;;8.20;5.27;;;;;;;-143.84;67.34;45113.81;5091294;28;20941;-75
2023/01/03 06:02:22;;;;;;;7.70;6.53;;;;;;;-143.84;67.01;45140.47;5091591;28;20447;-75
2023/01/03 06:04:49;;;;;;;7.30;5.90;;;;;;;-143.84;66.90;45136.66;5091783;28;20824;-76
2023/01/03 06:07:17;;;;;;;8.50;6.30;;;;;;;-143.84;66.76;45142.38;5091370;28;20439;-75
2023/01/03 06:09:44;;;;;;;6.40;4.80;;;;;;;-143.84;66.46;45134.75;5090818;28;20933;-75
2023/01/03 06:12:11;;;;;;;7.77;6.33;;;;;;;-143.84;66.36;45130.94;5090831;28;20886;-76
2023/01/03 06:14:38;;;;;;;7.67;6.80;;;;;;;-143.84;65.96;45144.28;5091222;28;20439;-76
2023/01/03 06:19:50;;;;;;;9.47;7.90;;;;;;;-143.84;65.46;45119.53;5090575;28;20424;-75
2023/01/03 06:22:18;;;;;;;14.60;8.67;;;;;;;-143.84;65.06;45129.03;5090593;28;20474;-75
2023/01/03 06:24:45;;;;;;;9.90;8.87;;;;;;;-143.84;64.99;45115.72;5090416;28;20433;-76
2023/01/03 06:27:12;;;;;;;9.40;8.20;;;;;;;-143.84;64.93;45161.41;5089943;28;21019;-76
2023/01/03 06:29:39;;;;;;;13.07;9.33;;;;;;;-143.84;65.26;45115.72;5090946;28;20447;-76
2023/01/03 06:32:06;;;;;;;7.90;7.10;;;;;;;-143.84;65.30;45132.84;5091156;28;20486;-76
2023/01/03 06:34:34;;;;;;;17.47;11.23;;;;;;;-143.84;65.20;45123.34;5091550;28;20436;-76
2023/01/03 06:37:02;;;;;;;7.23;6.33;;;;;;;-143.84;65.15;45132.84;5091864;28;20455;-76
2023/01/03 06:39:30;;;;;;;10.13;5.50;;;;;;;-143.84;64.93;45129.03;5091568;28;20495;-76
2023/01/03 06:41:57;;;;;;;5.23;4.73;;;;;;;-143.84;65.35;45129.03;5091496;28;20436;-76
2023/01/03 06:44:24;;;;;;;5.03;4.57;;;;;;;-143.84;65.50;45125.22;5091452;28;20440;-76
2023/01/03 06:55:15;;;;;;;6.23;4.63;;;;;;;-143.84;65.63;45106.19;5066980;28;20457;-77
2023/01/03 06:57:42;;;;;;;4.53;4.13;;;;;;;-143.84;65.76;45121.44;5091710;28;20435;-77
2023/01/03 07:00:10;;;;;;;6.80;4.27;;;;;;;-143.84;64.21;45083.34;5091821;28;20431;-76
2023/01/03 07:02:38;;;;;;;5.90;4.97;;;;;;;-143.84;63.50;45089.06;5091638;28;20455;-77
2023/01/03 07:05:06;;;;;;;5.90;5.10;;;;;;;-143.84;63.30;45104.28;5091829;28;20494;-76
2023/01/03 07:07:34;;;;;;;7.30;4.70;;;;;;;-143.84;61.58;45098.56;5091688;28;20443;-77
2023/01/03 07:10:01;;;;;;;5.40;4.53;;;;;;;-143.84;60.24;45096.66;5091407;28;20979;-77
2023/01/03 07:15:12;;;;;;;12.00;8.30;;;;;;;-143.84;59.47;45130.94;5091760;28;20493;-77
2023/01/03 07:17:40;;;;;;;20.07;13.57;;;;;;;-143.84;58.94;45096.66;5091865;28;20421;-77
2023/01/03 07:20:09;;;;;;;30.20;18.17;;;;;;;-143.84;57.73;45077.63;5091595;28;20454;-77
2023/01/03 07:22:37;;;;;;;23.27;15.93;;;;;;;-143.84;57.75;45092.88;5094198;28;20432;-77
2023/01/03 07:25:05;;;;;;;23.50;16.40;;;;;;;-143.84;57.19;45090.97;5095709;28;20439;-77
2023/01/03 07:27:32;;;;;;;30.70;20.33;;;;;;;-143.84;53.89;45083.34;5095430;28;20489;-77
2023/01/03 07:29:59;;;;;;;33.90;21.47;;;;;;;-143.84;54.83;45071.91;5095845;28;20443;-77
2023/01/03 07:32:26;;;;;;;23.90;16.13;;;;;;;-143.84;52.67;45100.47;5095811;28;20477;-78
2023/01/03 07:34:53;;;;;;;24.83;18.47;;;;;;;-143.84;54.75;45089.06;5095883;28;20487;-78
2023/01/03 07:37:20;;;;;;;29.60;15.60;;;;;;;-143.84;52.12;45079.53;5096160;28;20440;-78
2023/01/03 07:39:49;;;;;;;25.10;13.33;;;;;;;-143.84;49.46;45089.06;5095651;28;20443;-78
2023/01/03 07:45:01;;;;;;;18.60;12.17;;;;;;;-143.84;48.93;45087.16;5095647;28;20975;-78
2023/01/03 07:47:28;;;;;;;8.83;5.97;;;;;;;-143.84;45.07;45079.53;5095561;28;20446;-78
2023/01/03 07:49:55;;;;;;;6.57;6.00;;;;;;;-143.84;44.39;45087.16;5095507;28;20439;-78
2023/01/03 07:52:22;;;;;;;11.40;6.27;;;;;;;-143.84;43.89;45075.72;5095623;28;20460;-78
2023/01/03 07:54:51;;;;;;;10.73;8.43;;;;;;;-143.84;43.11;45056.69;5095616;28;20477;-78
2023/01/03 07:57:18;;;;;;;14.13;11.13;;;;;;;-143.84;44.06;45073.81;5095582;28;20447;-78
2023/01/03 07:59:45;;;;;;;15.83;9.07;;;;;;;-143.84;43.70;45045.25;5095084;28;20861;-78
2023/01/03 08:02:12;;;;;;;8.73;7.87;;;;;;;-143.84;42.59;45075.72;5095396;28;20485;-78
2023/01/03 08:04:39;;;;;;;6.87;6.20;;;;;;;-143.84;41.82;45062.41;5095354;28;20424;-78
2023/01/03 08:07:06;;;;;;;7.67;6.77;;;;;;;-143.84;40.88;45045.25;5095202;28;20443;-78
2023/01/03 08:15:04;;;;;;;6.87;5.10;;;;;;;-143.84;41.00;45047.16;5095116;28;20431;-78
2023/01/03 08:17:31;;;;;;;8.83;6.37;;;;;;;-143.84;40.09;45050.97;5093932;28;20864;-78
2023/01/03 08:19:58;;;;;;;9.27;6.40;;;;;;;-143.84;39.67;45022.41;5095411;28;20501;-78
2023/01/03 08:22:25;;;;;;;7.50;6.20;;;;;;;-143.84;39.29;45066.22;5095331;28;20432;-78
2023/01/03 08:24:52;;;;;;;9.13;7.33;;;;;;;-143.84;38.91;45018.59;5094958;28;20440;-78
2023/01/03 08:27:21;;;;;;;8.67;5.10;;;;;;;-143.84;37.84;44997.66;5095363;28;20469;-79
2023/01/03 08:29:48;;;;;;;8.97;6.50;;;;;;;-143.84;39.03;45030.03;5095833;28;20424;-78
2023/01/03 08:32:15;;;;;;;7.60;5.80;;;;;;;-143.84;38.66;45012.88;5094946;28;21393;-78
2023/01/03 08:34:46;;;;;;;5.67;4.10;;;;;;;-143.84;38.41;45033.84;5094304;28;20479;-78
2023/01/03 08:37:16;;;;;;;13.73;6.80;;;;;;;-143.84;38.10;45010.97;5095170;28;20490;-78
2023/01/03 08:39:49;;;;;;;19.77;11.77;;;;;;;-143.84;37.40;45007.19;5094607;28;20428;-79
2023/01/03 08:42:19;;;;;;;13.23;8.60;;;;;;;-143.84;37.05;45022.41;5092531;28;20497;-78
2023/01/03 08:44:49;;;;;;;21.63;13.53;;;;;;;-143.84;37.18;45014.78;5094244;28;20440;-78
2023/01/03 08:47:17;;;;;;;21.70;11.13;;;;;;;-143.84;36.42;45007.19;5094764;28;20428;-78
2023/01/03 08:49:44;;;;;;;15.20;6.83;;;;;;;-143.84;36.91;44993.84;5094325;28;20435;-78
2023/01/03 08:52:11;;;;;;;7.90;7.00;;;;;;;-143.84;36.30;45005.28;5094626;28;20467;-80
2023/01/03 08:54:39;;;;;;;6.07;4.47;;;;;;;-143.84;36.67;44995.75;5094232;28;20561;-79
2023/01/03 08:57:06;;;;;;;6.53;3.50;;;;;;;-143.84;35.61;45012.88;5093932;28;20516;-79
2023/01/03 08:59:33;;;;;;;9.00;4.10;;;;;;;-143.84;35.27;45007.19;5094406;28;20428;-78
2023/01/03 09:02:02;;;;;;;8.13;4.53;;;;;;;-143.84;35.73;45009.09;5094327;28;20489;-78
2023/01/03 09:04:29;;;;;;;3.80;3.00;;;;;;;-143.84;35.18;45001.47;5093887;28;20440;-78
2023/01/03 09:06:56;;;;;;;5.40;2.77;;;;;;;-143.84;34.99;45003.38;5093855;28;20913;-78
2023/01/03 09:09:23;;;;;;;9.33;5.00;;;;;;;-143.84;34.91;44997.66;5093872;28;20436;-78
2023/01/03 09:11:50;;;;;;;5.90;4.43;;;;;;;-143.84;35.67;45030.03;5093721;28;20488;-78
2023/01/03 09:14:18;;;;;;;2.43;2.17;;;;;;;-143.84;34.44;45014.78;5093786;28;20432;-78
2023/01/03 09:16:45;;;;;;;2.50;2.30;;;;;;;-143.84;35.16;45014.78;5094497;28;20436;-78
2023/01/03 09:19:13;;;;;;;4.07;2.83;;;;;;;-143.84;34.35;45001.47;5093928;28;20504;-78
2023/01/03 09:21:40;;;;;;;2.30;2.00;;;;;;;-143.84;34.74;44999.56;5094256;28;20428;-78
2023/01/03 09:24:08;;;;;;;3.00;2.80;;;;;;;-143.84;34.51;44972.91;5092877;28;20439;-78
2023/01/03 09:26:36;;;;;;;31.43;13.20;;;;;;;-143.84;33.88;45003.38;5090723;28;20440;-79
2023/01/03 09:29:04;;;;;;;9.70;8.07;;;;;;;-143.84;33.63;45007.19;5093426;28;20435;-76
2023/01/03 09:31:33;;;;;;;11.20;7.27;;;;;;;-143.84;33.76;44976.72;5092874;28;20435;-74
2023/01/03 09:34:01;;;;;;;36.37;17.23;;;;;;;-143.84;33.95;45010.97;5092830;28;20876;-73
2023/01/03 09:36:30;;;;;;;34.10;17.70;;;;;;;-143.84;33.23;44984.31;5092608;28;20467;-73
2023/01/03 09:38:57;;;;;;;34.67;17.93;;;;;;;-143.84;32.80;44982.41;5092417;28;20432;-74
2023/01/03 09:41:26;;;;;;;39.93;18.60;;;;;;;-143.84;32.59;44995.75;5092531;28;20493;-74
2023/01/03 09:43:59;;;;;;;33.00;17.07;;;;;;;-143.84;32.87;44984.31;5092367;28;20949;-74
2023/01/03 09:46:28;;;;;;;26.53;15.90;;;;;;;-143.84;32.71;44967.19;5092377;28;20440;-74
2023/01/03 09:48:57;;;;;;;26.60;13.80;;;;;;;-143.84;32.78;44984.31;5091949;28;20436;-74
2023/01/03 10:05:45;;;;;;;28.57;18.17;;;;;;;-143.84;32.97;45020.50;5092349;28;20473;-75
2023/01/03 10:08:35;;;;;;;28.73;15.80;;;;;;;-143.84;33.54;44993.84;5092371;28;20817;-74
2023/01/03 10:11:08;;;;;;;26.73;15.80;;;;;;;-143.84;33.02;45003.38;5090495;28;20483;-74
2023/01/03 10:13:55;;;;;;;26.53;14.60;;;;;;;-143.84;33.26;45001.47;5090661;28;20545;-74
2023/01/03 10:16:32;;;;;;;23.93;15.50;;;;;;;-143.84;32.66;44978.63;5091056;28;20489;-74
2023/01/03 10:19:37;;;;;;;42.23;11.70;;;;;;;-143.84;32.32;44982.41;5090719;28;20451;-73
2023/01/03 10:22:10;;;;;;;21.23;13.13;;;;;;;-143.84;32.40;45003.38;5090439;28;20440;-72
2023/01/03 10:24:45;;;;;;;36.50;20.47;;;;;;;-143.84;33.01;44976.72;5092701;28;20424;-72
2023/01/03 10:27:18;;;;;;;35.10;19.70;;;;;;;-143.84;33.01;44990.03;5092508;28;20431;-73
2023/01/03 10:29:47;;;;;;;38.50;18.80;;;;;;;-143.84;32.89;44988.13;5091545;28;20883;-73
2023/01/03 10:32:36;;;;;;;34.30;20.07;;;;;;;-143.84;33.07;45016.69;5091816;28;21073;-74
2023/01/03 10:35:17;;;;;;;29.90;20.60;;;;;;;-143.84;33.11;44976.72;5091809;28;20440;-75
2023/01/03 10:37:44;;;;;;;35.70;22.17;;;;;;;-143.84;33.59;45010.97;5092345;28;20436;-73
2023/01/03 10:40:14;;;;;;;31.63;23.07;;;;;;;-143.84;33.76;44991.94;5091819;28;20957;-75
2023/01/03 10:42:44;;;;;;;37.60;21.70;;;;;;;-143.84;33.68;44997.66;5092083;28;20447;-75
2023/01/03 10:45:15;;;;;;;44.63;23.30;;;;;;;-143.84;33.60;45022.41;5092388;28;20436;-74
2023/01/03 10:47:43;;;;;;;31.47;20.73;;;;;;;-143.84;33.86;44995.75;5091920;28;20436;-74
2023/01/03 10:50:21;;;;;;;46.53;21.87;;;;;;;-143.84;33.97;44990.03;5092061;28;20481;-75
2023/01/03 10:52:53;;;;;;;30.93;21.30;;;;;;;-143.84;33.83;45026.22;5092349;28;20529;-75
2023/01/03 10:55:22;;;;;;;28.50;20.23;;;;;;;-143.84;34.01;45018.59;5092320;28;20435;-75
2023/01/03 10:58:00;;;;;;;23.87;19.03;;;;;;;-143.84;34.06;44971.00;5095132;28;20444;-76
2023/01/03 11:00:31;;;;;;;39.73;20.50;;;;;;;-143.84;33.85;45009.09;5096302;28;20440;-76
2023/01/03 11:03:14;;;;;;;47.93;20.33;;;;;;;-143.84;33.98;44990.03;5096151;28;20440;-73
2023/01/03 11:05:44;;;;;;;39.43;19.97;;;;;;;-143.84;33.71;45005.28;5095738;28;20439;-76
2023/01/03 11:08:18;;;;;;;31.57;21.73;;;;;;;-143.84;34.14;45003.38;5096221;28;20802;-76
2023/01/03 11:10:54;;;;;;;27.20;21.00;;;;;;;-143.84;34.34;44995.75;5096168;28;20529;-76
2023/01/03 11:13:41;;;;;;;37.33;23.30;;;;;;;-143.84;33.56;45016.69;5096384;28;20877;-76
2023/01/03 11:16:19;;;;;;;52.03;22.47;;;;;;;-143.84;33.75;44988.13;5096270;28;20468;-76
2023/01/03 11:19:00;;;;;;;33.10;23.17;;;;;;;-143.84;34.14;45003.38;5096292;28;20427;-76
2023/01/03 11:21:35;;;;;;;35.77;20.60;;;;;;;-143.84;33.76;45009.09;5096388;28;20436;-76
2023/01/03 11:24:15;;;;;;;41.20;24.30;;;;;;;-143.84;34.13;45022.41;5095996;28;20479;-76
2023/01/03 11:26:49;;;;;;;40.40;24.00;;;;;;;-143.84;34.21;44993.84;5095986;28;20548;-76
2023/01/03 11:29:32;;;;;;;40.07;24.87;;;;;;;-143.84;34.91;45018.59;5095967;28;20492;-76
2023/01/03 11:32:17;;;;;;;44.63;25.00;;;;;;;-143.84;34.89;45012.88;5095958;28;20439;-76
2023/01/03 11:35:02;;;;;;;38.70;24.23;;;;;;;-143.84;35.52;45024.31;5095461;28;20485;-76
2023/01/03 11:37:43;;;;;;;49.60;25.97;;;;;;;-143.84;35.45;45022.41;5095250;28;20428;-76
2023/01/03 11:40:20;;;;;;;39.40;24.30;;;;;;;-143.84;36.04;45012.88;5095060;28;20442;-76
2023/01/03 11:42:58;;;;;;;43.97;24.60;;;;;;;-143.84;35.86;45022.41;5095227;28;20916;-76
2023/01/03 11:45:47;;;;;;;39.83;24.50;;;;;;;-143.84;36.16;44995.75;5094782;28;20493;-76
2023/01/03 11:48:45;;;;;;;36.37;22.03;;;;;;;-143.84;36.28;45005.28;5093095;28;21364;-76
2023/01/03 11:51:19;;;;;;;44.33;25.70;;;;;;;-143.84;36.50;44999.56;5095070;28;20459;-76
2023/01/03 11:54:00;;;;;;;34.23;23.30;;;;;;;-143.84;37.22;45014.78;5095397;28;20472;-76
2023/01/03 11:56:30;;;;;;;38.53;23.63;;;;;;;-143.84;37.24;45031.94;5095305;28;20972;-76
2023/01/03 11:59:33;;;;;;;41.00;22.97;;;;;;;-143.84;37.59;45045.25;5095048;28;20440;-76
2023/01/03 12:02:33;;;;;;;36.60;23.47;;;;;;;-143.84;37.55;45014.78;5095343;28;20428;-76
2023/01/03 12:05:15;;;;;;;44.73;22.90;;;;;;;-143.84;37.94;45030.03;5095698;28;20428;-77
2023/01/03 12:07:55;;;;;;;29.43;22.50;;;;;;;-143.84;38.29;45010.97;5095098;28;20428;-76
2023/01/03 12:10:27;;;;;;;30.60;20.23;;;;;;;-143.84;38.38;45039.53;5094343;28;20552;-77
2023/01/03 12:13:10;;;;;;;44.93;23.37;;;;;;;-143.84;38.67;45020.50;5095213;28;20468;-76
2023/01/03 12:15:44;;;;;;;34.47;21.40;;;;;;;-143.84;38.84;45031.94;5094873;28;20842;-76
2023/01/03 12:18:22;;;;;;;32.70;21.30;;;;;;;-143.84;38.93;45031.94;5094638;28;20907;-78
2023/01/03 12:20:56;;;;;;;37.17;22.30;;;;;;;-143.84;38.83;45030.03;5094712;28;20921;-78
2023/01/03 12:23:35;;;;;;;34.03;23.07;;;;;;;-143.84;38.78;45047.16;5093945;28;20497;-79
2023/01/03 12:26:06;;;;;;;36.87;21.80;;;;;;;-143.84;38.95;45047.16;5092869;28;20448;-78
2023/01/03 12:28:39;;;;;;;30.53;21.70;;;;;;;-143.84;39.19;45022.41;5093384;28;20497;-79
2023/01/03 12:31:18;;;;;;;43.40;21.40;;;;;;;-143.84;39.54;45028.13;5094832;28;20864;-78
2023/01/03 12:33:53;;;;;;;36.20;22.50;;;;;;;-143.84;39.32;45062.41;5094799;28;20472;-79